Edenville, Michigan
Current Conditions -  °F | °C
As of 8:52 AM on Friday 24 Oct 2014 (Local Time) from KIKW Reporting Station
Overcast Overcast  
Wind Chill: 44°   Ceiling: 3100
Heat Index: 44°   Visibility: 10mi
Dew Point: 41°   Wind: 3mph
Humidity: 89%   Direction: 290°WNW
Pressure: 30.05"   Gusts: NA
Location:  43.8°N, 84.38°W
Report Text: KIKW 241252Z AUTO 29003KT 10SM OVC031 07/05 A3005 RMK AO2 T00670050
Loading
Personal Weather Stations






























Interactive Weather Map New forecast layout! Learn more

10-Day Weather Forecast

Advertisements
Track Severe Weather on mobile